createdAt,value
2022-09-20T00:01:32.441Z,8.00
2022-09-20T00:04:02.209Z,8.00
2022-09-20T00:06:31.243Z,7.90
2022-09-20T00:08:59.682Z,7.90
2022-09-20T00:11:30.023Z,8.00
2022-09-20T00:13:59.384Z,8.00
2022-09-20T00:16:31.411Z,8.00
2022-09-20T00:19:00.727Z,8.10
2022-09-20T00:21:30.639Z,8.00
2022-09-20T00:23:58.117Z,8.00
2022-09-20T00:26:27.579Z,8.10
2022-09-20T00:28:55.447Z,8.10
2022-09-20T00:31:22.266Z,8.00
2022-09-20T00:34:07.901Z,8.00
2022-09-20T00:36:34.732Z,8.00
2022-09-20T00:39:04.005Z,8.00
2022-09-20T00:41:32.802Z,8.10
2022-09-20T00:44:00.544Z,8.10
2022-09-20T00:46:38.056Z,8.20
2022-09-20T00:49:16.888Z,8.20
2022-09-20T00:51:50.221Z,8.30
2022-09-20T00:54:20.460Z,8.30
2022-09-20T00:56:48.470Z,8.30
2022-09-20T00:59:22.991Z,8.40
2022-09-20T01:01:56.650Z,8.40
2022-09-20T01:04:27.402Z,8.50
2022-09-20T01:06:58.207Z,8.50
2022-09-20T01:09:24.960Z,8.60
2022-09-20T01:11:55.783Z,8.60
2022-09-20T01:14:25.104Z,8.60
2022-09-20T01:16:56.093Z,8.60
2022-09-20T01:19:44.062Z,8.70
2022-09-20T01:22:44.311Z,8.70
2022-09-20T01:25:22.367Z,8.70
2022-09-20T01:27:52.765Z,8.70
2022-09-20T01:30:26.613Z,8.80
2022-09-20T01:33:23.817Z,8.70
2022-09-20T01:35:53.426Z,8.80
2022-09-20T01:39:12.339Z,8.70
2022-09-20T01:41:58.276Z,8.50
2022-09-20T01:44:36.890Z,8.60
2022-09-20T01:47:33.795Z,8.70
2022-09-20T01:50:36.009Z,8.70
2022-09-20T01:53:55.551Z,8.80
2022-09-20T01:57:01.265Z,8.80
2022-09-20T02:00:15.037Z,8.80
2022-09-20T02:02:59.535Z,8.90
2022-09-20T02:05:38.240Z,8.90
2022-09-20T02:08:34.593Z,8.80
2022-09-20T02:11:14.310Z,8.80
2022-09-20T02:13:40.986Z,8.80
2022-09-20T02:16:34.837Z,8.80
2022-09-20T02:19:47.290Z,8.90
2022-09-20T02:22:39.722Z,8.80
2022-09-20T02:25:44.427Z,8.80
2022-09-20T02:28:29.731Z,8.70
2022-09-20T02:31:51.594Z,8.80
2022-09-20T02:34:44.398Z,8.90
2022-09-20T02:37:52.006Z,8.90
2022-09-20T02:40:49.926Z,8.90
2022-09-20T02:44:02.036Z,8.90
2022-09-20T02:46:41.639Z,8.90
2022-09-20T02:49:22.314Z,8.90
2022-09-20T02:51:58.625Z,9.00
2022-09-20T02:55:05.719Z,9.00
2022-09-20T02:57:48.369Z,9.10
2022-09-20T03:00:27.224Z,9.10
2022-09-20T03:03:18.296Z,9.00
2022-09-20T03:06:02.782Z,9.00
2022-09-20T03:08:54.102Z,9.00
2022-09-20T03:11:32.799Z,8.90
2022-09-20T03:14:14.461Z,8.90
2022-09-20T03:17:02.446Z,8.90
2022-09-20T03:20:00.065Z,8.80
2022-09-20T03:22:45.395Z,8.90
2022-09-20T03:25:51.861Z,8.90
2022-09-20T03:28:38.135Z,8.90
2022-09-20T03:32:00.873Z,9.00
2022-09-20T03:34:49.267Z,8.90
2022-09-20T03:37:54.403Z,9.00
2022-09-20T03:40:46.363Z,8.90
2022-09-20T03:43:30.866Z,8.90
2022-09-20T03:46:22.500Z,8.90
2022-09-20T03:49:38.121Z,9.10
2022-09-20T03:52:31.957Z,9.10
2022-09-20T03:55:38.683Z,8.90
2022-09-20T03:58:14.887Z,8.80
2022-09-20T04:01:10.607Z,8.80
2022-09-20T04:04:30.565Z,8.50
2022-09-20T04:07:14.592Z,8.60
2022-09-20T04:09:56.478Z,8.60
2022-09-20T04:13:00.653Z,8.70
2022-09-20T04:16:27.429Z,8.70
2022-09-20T04:19:17.229Z,8.60
2022-09-20T04:21:58.887Z,8.60
2022-09-20T04:24:28.848Z,8.50
2022-09-20T04:27:28.410Z,8.50
2022-09-20T04:30:29.476Z,8.50
2022-09-20T04:33:21.912Z,8.60
2022-09-20T04:36:37.919Z,8.50
2022-09-20T04:39:32.496Z,8.60
2022-09-20T04:42:30.044Z,8.40
2022-09-20T04:45:52.859Z,8.30
2022-09-20T04:48:49.932Z,8.30
2022-09-20T04:51:51.202Z,8.40
2022-09-20T04:54:54.741Z,8.40
2022-09-20T04:58:21.173Z,8.30
2022-09-20T05:01:46.198Z,8.10
2022-09-20T05:04:56.790Z,8.20
2022-09-20T05:08:09.957Z,8.10
2022-09-20T05:11:17.210Z,8.10
2022-09-20T05:14:28.076Z,8.20
2022-09-20T05:17:22.043Z,8.30
2022-09-20T05:20:02.556Z,8.40
2022-09-20T05:23:01.572Z,8.40
2022-09-20T05:26:01.550Z,8.60
2022-09-20T05:28:44.601Z,8.60
2022-09-20T05:31:49.169Z,8.70
2022-09-20T05:34:59.189Z,8.80
2022-09-20T05:38:13.623Z,8.80
2022-09-20T05:41:02.744Z,8.80
2022-09-20T05:43:49.254Z,8.80
2022-09-20T05:46:45.065Z,8.80
2022-09-20T05:50:06.209Z,8.90
2022-09-20T05:52:47.091Z,8.80
2022-09-20T05:56:00.936Z,8.90
2022-09-20T05:59:06.552Z,9.00
2022-09-20T06:01:44.278Z,9.00
2022-09-20T06:04:27.961Z,9.00
2022-09-20T06:07:14.770Z,9.10
2022-09-20T06:10:02.446Z,9.00
2022-09-20T06:12:57.959Z,8.90
2022-09-20T06:15:46.740Z,9.00
2022-09-20T06:18:16.435Z,9.10
2022-09-20T06:21:15.142Z,9.20
2022-09-20T06:23:42.276Z,9.20
2022-09-20T06:26:23.806Z,9.30
2022-09-20T06:28:58.486Z,9.30
2022-09-20T06:31:26.723Z,9.30
2022-09-20T06:34:10.640Z,9.30
2022-09-20T06:36:58.605Z,9.30
2022-09-20T06:40:24.254Z,9.40
2022-09-20T06:42:51.382Z,9.50
2022-09-20T06:45:18.121Z,9.60
2022-09-20T06:47:44.859Z,9.70
2022-09-20T06:50:19.420Z,9.70
2022-09-20T06:52:47.498Z,9.60
2022-09-20T06:55:26.065Z,9.60
2022-09-20T06:57:55.595Z,9.80
2022-09-20T07:00:23.190Z,9.90
2022-09-20T07:02:49.948Z,9.90
2022-09-20T07:05:21.854Z,10.00
2022-09-20T07:07:49.071Z,10.10
2022-09-20T07:10:16.831Z,10.00
2022-09-20T07:12:43.611Z,10.10
2022-09-20T07:15:10.703Z,10.30
2022-09-20T07:17:37.524Z,10.30
2022-09-20T07:20:04.744Z,10.70
2022-09-20T07:22:31.658Z,10.80
2022-09-20T07:25:02.343Z,10.80
2022-09-20T07:27:29.759Z,10.50
2022-09-20T07:29:56.659Z,10.40
2022-09-20T07:32:23.431Z,10.50
2022-09-20T07:34:50.298Z,10.50
2022-09-20T07:37:18.765Z,10.50
2022-09-20T07:39:46.293Z,10.50
2022-09-20T07:42:13.505Z,10.40
2022-09-20T07:44:42.202Z,10.30
2022-09-20T07:47:11.026Z,10.40
2022-09-20T07:49:37.792Z,10.50
2022-09-20T07:52:04.687Z,10.50
2022-09-20T07:54:31.784Z,10.70
2022-09-20T07:56:58.589Z,11.00
2022-09-20T07:59:25.923Z,11.50
2022-09-20T08:01:52.737Z,11.80
2022-09-20T08:04:19.529Z,11.90
2022-09-20T08:06:46.564Z,12.30
2022-09-20T08:09:14.175Z,12.20
2022-09-20T08:11:43.429Z,11.90
2022-09-20T08:14:15.526Z,11.90
2022-09-20T08:16:50.351Z,11.70
2022-09-20T08:19:23.118Z,11.40
2022-09-20T08:21:53.279Z,11.30
2022-09-20T08:24:20.340Z,11.10
2022-09-20T08:26:48.238Z,11.20
2022-09-20T08:29:15.393Z,11.10
2022-09-20T08:31:42.730Z,11.10
2022-09-20T08:34:12.442Z,11.30
2022-09-20T08:36:45.378Z,11.20
2022-09-20T08:42:27.130Z,12.30
2022-09-20T08:45:03.161Z,12.50
2022-09-20T08:47:33.187Z,12.30
2022-09-20T08:50:17.311Z,12.00
2022-09-20T08:52:48.427Z,11.80
2022-09-20T08:55:36.427Z,11.60
2022-09-20T08:58:08.483Z,11.50
2022-09-20T09:00:38.505Z,11.40
2022-09-20T09:03:12.964Z,11.40
2022-09-20T09:05:52.751Z,11.40
2022-09-20T09:08:37.677Z,11.40
2022-09-20T09:11:13.106Z,11.60
2022-09-20T09:14:31.474Z,11.80
2022-09-20T09:16:58.461Z,12.20
2022-09-20T09:19:34.586Z,12.50
2022-09-20T09:22:04.968Z,12.70
2022-09-20T09:24:32.656Z,12.60
2022-09-20T09:27:19.144Z,12.70
2022-09-20T09:29:56.264Z,12.50
2022-09-20T09:32:29.014Z,12.60
2022-09-20T09:34:57.417Z,12.50
2022-09-20T09:37:31.041Z,12.50
2022-09-20T09:40:09.744Z,12.60
2022-09-20T09:42:36.707Z,12.80
2022-09-20T09:45:41.610Z,12.80
2022-09-20T09:48:26.816Z,12.90
2022-09-20T09:51:26.467Z,12.50
2022-09-20T09:53:55.068Z,12.30
2022-09-20T09:56:57.291Z,11.90
2022-09-20T09:59:49.185Z,11.60
2022-09-20T10:02:32.572Z,11.40
2022-09-20T10:05:31.296Z,11.40
2022-09-20T10:08:10.946Z,11.50
2022-09-20T10:11:13.797Z,11.70
2022-09-20T10:14:05.371Z,11.90
2022-09-20T10:17:22.989Z,12.10
2022-09-20T10:20:33.583Z,12.20
2022-09-20T10:24:02.150Z,12.30
2022-09-20T10:26:32.407Z,12.80
2022-09-20T10:29:26.908Z,13.40
2022-09-20T10:32:39.453Z,13.60
2022-09-20T10:35:27.598Z,13.80
2022-09-20T10:38:14.183Z,14.30
2022-09-20T10:41:12.045Z,14.30
2022-09-20T10:44:06.028Z,13.70
2022-09-20T10:47:10.910Z,13.50
2022-09-20T10:50:14.257Z,13.40
2022-09-20T10:53:13.066Z,12.80
2022-09-20T10:56:20.077Z,12.10
2022-09-20T10:59:17.268Z,11.70
2022-09-20T11:02:17.344Z,11.50
2022-09-20T11:05:19.063Z,11.50
2022-09-20T11:08:07.775Z,11.60
2022-09-20T11:10:36.528Z,11.70
2022-09-20T11:13:14.039Z,11.60
2022-09-20T11:16:47.768Z,12.00
2022-09-20T11:19:44.823Z,12.10
2022-09-20T11:22:19.773Z,12.10
2022-09-20T11:25:19.387Z,12.00
2022-09-20T11:27:54.684Z,11.90
2022-09-20T11:30:23.943Z,11.80
2022-09-20T11:33:18.633Z,11.70
2022-09-20T11:36:08.859Z,11.40
2022-09-20T11:38:53.405Z,11.10
2022-09-20T11:41:30.996Z,11.10
2022-09-20T11:44:08.322Z,11.10
2022-09-20T11:47:00.560Z,11.10
2022-09-20T11:50:12.202Z,11.20
2022-09-20T11:53:11.292Z,11.40
2022-09-20T11:55:48.563Z,11.70
2022-09-20T11:58:19.096Z,11.70
2022-09-20T12:00:51.689Z,11.60
2022-09-20T12:03:40.057Z,11.60
2022-09-20T12:06:29.934Z,11.70
2022-09-20T12:09:00.854Z,11.80
2022-09-20T12:11:36.378Z,12.20
2022-09-20T12:14:22.337Z,12.40
2022-09-20T12:16:50.559Z,12.40
2022-09-20T12:19:33.178Z,12.50
2022-09-20T12:21:59.871Z,12.60
2022-09-20T12:24:33.301Z,12.60
2022-09-20T12:27:27.467Z,12.80
2022-09-20T12:30:08.667Z,12.80
2022-09-20T12:32:47.931Z,12.70
2022-09-20T12:35:44.417Z,12.20
2022-09-20T12:38:20.254Z,11.90
2022-09-20T12:41:08.563Z,11.70
2022-09-20T12:43:48.137Z,11.70
2022-09-20T12:46:27.139Z,11.60
2022-09-20T12:49:46.616Z,11.60
2022-09-20T12:52:58.101Z,11.80
2022-09-20T12:55:36.899Z,12.20
2022-09-20T12:58:15.758Z,12.30
2022-09-20T13:00:57.429Z,12.60
2022-09-20T13:03:40.864Z,12.50
2022-09-20T13:06:08.827Z,12.30
2022-09-20T13:08:48.249Z,12.50
2022-09-20T13:11:45.981Z,12.70
2022-09-20T13:14:23.558Z,12.80
2022-09-20T13:17:27.763Z,12.40
2022-09-20T13:19:56.324Z,12.30
2022-09-20T13:22:26.421Z,12.20
2022-09-20T13:24:58.546Z,12.20
2022-09-20T13:27:31.874Z,12.10
2022-09-20T13:30:32.541Z,11.80
2022-09-20T13:33:24.054Z,11.90
2022-09-20T13:35:56.884Z,12.00
2022-09-20T13:38:29.910Z,12.10
2022-09-20T13:41:06.191Z,12.50
2022-09-20T13:43:42.939Z,12.80
2022-09-20T13:46:23.281Z,13.10
2022-09-20T13:49:14.220Z,13.40
2022-09-20T13:51:41.309Z,13.60
2022-09-20T13:54:29.285Z,14.10
2022-09-20T13:57:01.664Z,14.40
2022-09-20T13:59:44.843Z,14.40
2022-09-20T14:02:20.141Z,14.30
2022-09-20T14:04:47.195Z,13.50
2022-09-20T14:07:15.101Z,12.80
2022-09-20T14:09:42.003Z,11.70
2022-09-20T14:12:10.877Z,10.80
2022-09-20T14:14:38.143Z,10.70
2022-09-20T14:17:11.565Z,10.90
2022-09-20T14:19:42.203Z,10.70
2022-09-20T14:22:28.968Z,10.90
2022-09-20T14:25:14.197Z,10.90
2022-09-20T14:27:41.050Z,10.80
2022-09-20T14:30:29.324Z,11.10
2022-09-20T14:32:57.624Z,11.30
2022-09-20T14:35:24.513Z,11.50
2022-09-20T14:37:56.956Z,11.60
2022-09-20T14:40:32.015Z,11.60
2022-09-20T14:43:01.771Z,11.20
2022-09-20T14:45:33.580Z,10.80
2022-09-20T14:48:11.057Z,10.60
2022-09-20T14:50:46.931Z,10.70
2022-09-20T14:53:26.993Z,10.80
2022-09-20T14:56:32.283Z,11.00
2022-09-20T14:59:17.458Z,11.00
2022-09-20T15:02:03.456Z,11.20
2022-09-20T15:04:32.770Z,11.30
2022-09-20T15:07:06.348Z,11.40
2022-09-20T15:09:35.316Z,11.60
2022-09-20T15:12:31.963Z,11.60
2022-09-20T15:14:59.085Z,11.40
2022-09-20T15:17:26.378Z,11.50
2022-09-20T15:19:53.809Z,11.40
2022-09-20T15:22:20.700Z,11.30
2022-09-20T15:24:48.080Z,11.40
2022-09-20T15:27:15.682Z,11.30
2022-09-20T15:29:42.401Z,11.40
2022-09-20T15:32:10.998Z,11.30
2022-09-20T15:34:38.502Z,11.40
2022-09-20T15:37:05.475Z,11.40
2022-09-20T15:39:32.373Z,11.50
2022-09-20T15:41:59.201Z,11.40
2022-09-20T15:44:25.958Z,11.40
2022-09-20T15:46:53.231Z,11.50
2022-09-20T15:49:21.878Z,11.40
2022-09-20T15:51:48.688Z,11.30
2022-09-20T15:54:15.663Z,11.30
2022-09-20T15:56:43.189Z,11.50
2022-09-20T15:59:13.252Z,11.70
2022-09-20T16:01:43.169Z,11.90
2022-09-20T16:04:15.912Z,12.00
2022-09-20T16:06:46.799Z,11.90
2022-09-20T16:09:14.028Z,11.70
2022-09-20T16:11:41.480Z,11.60
2022-09-20T16:14:08.953Z,11.30
2022-09-20T16:16:40.447Z,11.00
2022-09-20T16:19:23.637Z,11.10
2022-09-20T16:21:58.869Z,11.10
2022-09-20T16:24:29.272Z,11.10
2022-09-20T16:26:57.456Z,11.10
2022-09-20T16:29:25.830Z,11.00
2022-09-20T16:31:54.602Z,11.00
2022-09-20T16:34:31.572Z,11.00
2022-09-20T16:37:03.102Z,10.90
2022-09-20T16:39:31.017Z,10.80
2022-09-20T16:42:04.771Z,10.70
2022-09-20T16:44:41.871Z,10.60
2022-09-20T16:47:16.332Z,10.60
2022-09-20T16:49:43.538Z,10.60
2022-09-20T16:52:11.281Z,10.60
2022-09-20T16:54:38.228Z,10.50
2022-09-20T16:57:05.241Z,10.40
2022-09-20T16:59:32.362Z,10.40
2022-09-20T17:01:59.166Z,10.30
2022-09-20T17:04:26.178Z,10.30
2022-09-20T17:06:53.336Z,10.20
2022-09-20T17:09:20.886Z,10.10
2022-09-20T17:11:50.282Z,10.00
2022-09-20T17:14:20.285Z,10.00
2022-09-20T17:16:48.362Z,9.90
2022-09-20T17:19:18.734Z,9.90
2022-09-20T17:21:51.188Z,9.80
2022-09-20T17:24:21.198Z,9.70
2022-09-20T17:26:50.167Z,9.70
2022-09-20T17:29:18.947Z,9.40
2022-09-20T17:31:54.566Z,9.30
2022-09-20T17:34:22.733Z,9.40
2022-09-20T17:36:50.464Z,9.40
2022-09-20T17:39:18.313Z,9.20
2022-09-20T17:41:50.116Z,9.30
2022-09-20T17:44:18.660Z,9.30
2022-09-20T17:46:49.455Z,9.10
2022-09-20T17:49:19.768Z,9.10
2022-09-20T17:51:50.074Z,9.10
2022-09-20T17:54:17.478Z,9.00
2022-09-20T17:56:47.412Z,8.90
2022-09-20T17:59:16.101Z,8.80
2022-09-20T18:01:44.612Z,8.80
2022-09-20T18:04:12.011Z,8.90
2022-09-20T18:06:47.443Z,8.90
2022-09-20T18:09:17.621Z,8.90
2022-09-20T18:11:53.250Z,8.90
2022-09-20T18:14:27.267Z,8.90
2022-09-20T18:16:57.905Z,8.90
2022-09-20T18:19:24.969Z,9.00
2022-09-20T18:21:51.905Z,9.00
2022-09-20T18:24:18.769Z,9.00
2022-09-20T18:26:45.561Z,9.00
2022-09-20T18:29:16.673Z,9.20
2022-09-20T18:31:50.567Z,9.20
2022-09-20T18:34:23.856Z,9.30
2022-09-20T18:36:56.302Z,9.30
2022-09-20T18:39:25.680Z,9.10
2022-09-20T18:41:53.511Z,9.00
2022-09-20T18:44:21.616Z,9.20
2022-09-20T18:46:49.334Z,9.20
2022-09-20T18:49:16.947Z,9.30
2022-09-20T18:51:45.423Z,9.40
2022-09-20T18:54:12.775Z,9.40
2022-09-20T18:56:41.868Z,9.50
2022-09-20T18:59:18.053Z,9.40
2022-09-20T19:01:52.621Z,9.30
2022-09-20T19:04:28.595Z,9.30
2022-09-20T19:07:45.287Z,9.40
2022-09-20T19:10:33.784Z,9.40
2022-09-20T19:13:46.415Z,9.40
2022-09-20T19:16:30.908Z,9.40
2022-09-20T19:19:46.234Z,9.30
2022-09-20T19:22:45.881Z,9.30
2022-09-20T19:25:43.967Z,9.20
2022-09-20T19:28:13.474Z,9.00
2022-09-20T19:30:42.542Z,9.00
2022-09-20T19:33:17.832Z,8.80
2022-09-20T19:35:52.104Z,8.70
2022-09-20T19:38:50.856Z,8.80
2022-09-20T19:42:14.739Z,8.90
2022-09-20T19:44:44.689Z,8.90
2022-09-20T19:47:44.988Z,9.00
2022-09-20T19:50:46.444Z,9.00
2022-09-20T19:53:16.852Z,9.00
2022-09-20T19:55:50.242Z,8.90
2022-09-20T19:58:17.472Z,8.90
2022-09-20T20:00:46.907Z,9.00
2022-09-20T20:03:15.709Z,9.00
2022-09-20T20:06:08.265Z,9.00
2022-09-20T20:09:09.798Z,9.00
2022-09-20T20:11:48.414Z,9.10
2022-09-20T20:14:39.222Z,9.00
2022-09-20T20:17:59.001Z,9.00
2022-09-20T20:20:43.842Z,8.90
2022-09-20T20:23:37.306Z,8.80
2022-09-20T20:26:23.927Z,8.90
2022-09-20T20:28:52.321Z,8.80
2022-09-20T20:31:20.860Z,8.70
2022-09-20T20:33:47.976Z,8.70
2022-09-20T20:36:17.289Z,8.60
2022-09-20T20:38:49.568Z,8.40
2022-09-20T20:41:19.342Z,8.30
2022-09-20T20:43:47.102Z,8.30
2022-09-20T20:46:20.308Z,8.20
2022-09-20T20:48:47.743Z,8.10
2022-09-20T20:51:18.135Z,8.10
2022-09-20T20:53:51.531Z,8.00
2022-09-20T20:56:20.859Z,7.90
2022-09-20T20:58:49.298Z,7.80
2022-09-20T21:01:34.160Z,7.90
2022-09-20T21:04:03.284Z,7.80
2022-09-20T21:06:34.350Z,7.70
2022-09-20T21:09:02.992Z,7.70
2022-09-20T21:11:34.676Z,7.60
2022-09-20T21:14:03.456Z,7.40
2022-09-20T21:16:35.564Z,7.50
2022-09-20T21:19:03.974Z,7.50
2022-09-20T21:21:38.492Z,7.40
2022-09-20T21:24:08.581Z,7.30
2022-09-20T21:26:37.220Z,7.20
2022-09-20T21:29:07.831Z,7.30
2022-09-20T21:31:37.651Z,7.30
2022-09-20T21:34:06.899Z,7.00
2022-09-20T21:36:35.862Z,6.90
2022-09-20T21:39:04.076Z,7.00
2022-09-20T21:41:33.615Z,7.10
2022-09-20T21:44:04.234Z,7.10
2022-09-20T21:46:40.191Z,7.10
2022-09-20T21:49:10.831Z,7.00
2022-09-20T21:51:40.185Z,7.00
2022-09-20T21:54:07.141Z,7.00
2022-09-20T21:56:36.818Z,7.10
2022-09-20T21:59:05.174Z,7.00
2022-09-20T22:01:40.234Z,6.90
2022-09-20T22:04:11.963Z,6.90
2022-09-20T22:06:42.261Z,6.80
2022-09-20T22:09:20.202Z,6.70
2022-09-20T22:11:48.817Z,6.70
2022-09-20T22:14:19.384Z,6.60
2022-09-20T22:16:48.331Z,6.60
2022-09-20T22:19:17.059Z,6.60
2022-09-20T22:21:49.690Z,6.70
2022-09-20T22:24:17.524Z,6.70
2022-09-20T22:26:46.540Z,6.80
2022-09-20T22:29:14.351Z,6.80
2022-09-20T22:31:46.702Z,6.70
2022-09-20T22:34:17.325Z,6.70
2022-09-20T22:36:44.978Z,6.70
2022-09-20T22:39:12.800Z,6.70
2022-09-20T22:41:41.305Z,6.70
2022-09-20T22:44:08.628Z,6.50
2022-09-20T22:46:36.532Z,6.40
2022-09-20T22:49:08.355Z,6.50
2022-09-20T22:51:36.367Z,6.60
2022-09-20T22:54:13.310Z,6.40
2022-09-20T22:56:43.354Z,6.30
2022-09-20T22:59:13.639Z,6.30
2022-09-20T23:01:46.871Z,6.30
2022-09-20T23:04:17.838Z,6.30
2022-09-20T23:06:47.779Z,6.30
2022-09-20T23:09:17.715Z,6.40
2022-09-20T23:11:44.999Z,6.40
2022-09-20T23:14:14.765Z,6.50
2022-09-20T23:16:42.384Z,6.60
2022-09-20T23:19:11.022Z,6.70
2022-09-20T23:21:40.062Z,6.60
2022-09-20T23:24:10.281Z,6.30
2022-09-20T23:26:39.053Z,6.40
2022-09-20T23:29:13.673Z,6.20
2022-09-20T23:31:45.843Z,6.30
2022-09-20T23:34:14.995Z,6.50
2022-09-20T23:36:42.665Z,6.50
2022-09-20T23:39:11.694Z,6.60
2022-09-20T23:41:39.016Z,6.60
2022-09-20T23:44:10.039Z,6.90
2022-09-20T23:46:38.363Z,6.90
2022-09-20T23:49:06.577Z,6.90
2022-09-20T23:51:35.245Z,6.90
2022-09-20T23:54:02.623Z,6.90
2022-09-20T23:56:29.994Z,6.90
2022-09-20T23:58:56.842Z,6.90
